AAL6532 KDTW-LICJ
Flight info
| Callsign | AAL6532 |
|---|---|
| Flight time | N/A |
| Altitude | 33000 |
| Route | ZETTR4 SIKBO DCT DEDKI Q913 CABCI Q29 YHZ DCT 44N059W/M084F350 44N056W 44N051W 44N047W 44N039W 44N032W 44N024W 44N018W DCT KOPAS/N0483F370 DCT STG/N0461F240 N725 SUSOS/N0486F360 N725 MECKI/N0482F380 N725 OSPOK/N0426F180 N725 ORKUM/N0480F260 M603 ELSAG/N0426F180 M603 ALG/N0433F190 M732 CAR M871 KAPIL |
| Aircraft | B77W/H-SDE1E2E3FGHIJ2J3J4J5M1RWXY/LB1D1 |
Departure
| Time | 2026-05-06 21:35 |
|---|---|
| Airport | Detroit Metropolitan Wayne County Airport (KDTW) |
Arrival
| Time | N/A |
|---|---|
| Airport | Falcone–Borsellino Airport (LICJ) |
| Time | Latitude | Longitude | Altitude | Speed | Heading |
|---|---|---|---|---|---|
| 2026-05-06 21:02 | 42.22210 | -83.35095 | 654 ft | 0 kts | 346° |
| 2026-05-06 21:21 | 42.22117 | -83.35074 | 654 ft | 0 kts | 264° |
| 2026-05-06 21:25 | 42.22114 | -83.35104 | 655 ft | 5 kts | 261° |
| 2026-05-06 21:25 | 42.22104 | -83.35155 | 657 ft | 6 kts | 248° |
| 2026-05-06 21:25 | 42.22075 | -83.35205 | 659 ft | 7 kts | 221° |
| 2026-05-06 21:26 | 42.22032 | -83.35244 | 657 ft | 9 kts | 210° |
| 2026-05-06 21:26 | 42.21967 | -83.35292 | 658 ft | 11 kts | 207° |
| 2026-05-06 21:26 | 42.21895 | -83.35328 | 655 ft | 11 kts | 191° |
| 2026-05-06 21:26 | 42.21819 | -83.35331 | 657 ft | 11 kts | 177° |
| 2026-05-06 21:27 | 42.21744 | -83.35325 | 653 ft | 11 kts | 172° |
| 2026-05-06 21:27 | 42.21676 | -83.35278 | 654 ft | 11 kts | 142° |
| 2026-05-06 21:27 | 42.21616 | -83.35213 | 656 ft | 11 kts | 150° |
| 2026-05-06 21:27 | 42.21558 | -83.35248 | 658 ft | 11 kts | 245° |
| 2026-05-06 21:28 | 42.21549 | -83.35347 | 658 ft | 11 kts | 270° |
| 2026-05-06 21:28 | 42.21549 | -83.35447 | 658 ft | 11 kts | 270° |
| 2026-05-06 21:28 | 42.21549 | -83.35547 | 658 ft | 11 kts | 270° |
| 2026-05-06 21:28 | 42.21546 | -83.35647 | 655 ft | 11 kts | 268° |
| 2026-05-06 21:29 | 42.21543 | -83.35747 | 655 ft | 11 kts | 267° |
| 2026-05-06 21:29 | 42.21537 | -83.35847 | 658 ft | 11 kts | 258° |
| 2026-05-06 21:29 | 42.21490 | -83.35921 | 655 ft | 11 kts | 214° |
| 2026-05-06 21:29 | 42.21425 | -83.35971 | 655 ft | 11 kts | 208° |
| 2026-05-06 21:30 | 42.21340 | -83.36032 | 657 ft | 16 kts | 209° |
| 2026-05-06 21:30 | 42.21244 | -83.36104 | 657 ft | 16 kts | 208° |
| 2026-05-06 21:30 | 42.21145 | -83.36172 | 655 ft | 16 kts | 204° |
| 2026-05-06 21:30 | 42.21046 | -83.36236 | 655 ft | 16 kts | 208° |
| 2026-05-06 21:31 | 42.20949 | -83.36308 | 657 ft | 16 kts | 209° |
| 2026-05-06 21:31 | 42.20855 | -83.36385 | 657 ft | 16 kts | 213° |
| 2026-05-06 21:31 | 42.20759 | -83.36459 | 657 ft | 16 kts | 208° |
| 2026-05-06 21:31 | 42.20663 | -83.36530 | 657 ft | 16 kts | 209° |
| 2026-05-06 21:32 | 42.20566 | -83.36602 | 657 ft | 16 kts | 209° |
| 2026-05-06 21:32 | 42.20373 | -83.36745 | 659 ft | 16 kts | 208° |
| 2026-05-06 21:32 | 42.20279 | -83.36811 | 657 ft | 14 kts | 201° |
| 2026-05-06 21:33 | 42.20199 | -83.36833 | 656 ft | 11 kts | 211° |
| 2026-05-06 21:33 | 42.20179 | -83.36927 | 656 ft | 11 kts | 278° |
| 2026-05-06 21:33 | 42.20206 | -83.37024 | 657 ft | 11 kts | 296° |
| 2026-05-06 21:33 | 42.20253 | -83.37094 | 654 ft | 10 kts | 345° |
| 2026-05-06 21:34 | 42.20314 | -83.37065 | 654 ft | 7 kts | 27° |
| 2026-05-06 21:34 | 42.20332 | -83.37052 | 653 ft | 0 kts | 27° |
| 2026-05-06 21:34 | 42.20417 | -83.36991 | 654 ft | 33 kts | 28° |
| 2026-05-06 21:35 | 42.20849 | -83.36674 | 653 ft | 107 kts | 28° |
| 2026-05-06 21:35 | 42.21719 | -83.36039 | 654 ft | 170 kts | 28° |
| 2026-05-06 21:35 | 42.22851 | -83.35210 | 801 ft | 199 kts | 25° |
| 2026-05-06 21:35 | 42.24080 | -83.34285 | 1310 ft | 205 kts | 28° |
| 2026-05-06 21:36 | 42.25330 | -83.33300 | 1948 ft | 213 kts | 26° |
| 2026-05-06 21:36 | 42.26656 | -83.32306 | 2515 ft | 218 kts | 24° |
| 2026-05-06 21:36 | 42.28057 | -83.31308 | 2891 ft | 240 kts | 24° |
| 2026-05-06 21:36 | 42.29613 | -83.30190 | 3426 ft | 254 kts | 25° |
| 2026-05-06 21:37 | 42.31192 | -83.29034 | 4199 ft | 261 kts | 25° |
| 2026-05-06 21:37 | 42.32782 | -83.27860 | 4987 ft | 267 kts | 26° |
| 2026-05-06 21:37 | 42.34425 | -83.26641 | 5849 ft | 270 kts | 26° |
| 2026-05-06 21:37 | 42.36069 | -83.25421 | 6601 ft | 271 kts | 26° |
| 2026-05-06 21:38 | 42.37747 | -83.24175 | 7016 ft | 278 kts | 26° |
| 2026-05-06 21:38 | 42.39461 | -83.22901 | 6996 ft | 282 kts | 26° |
| 2026-05-06 21:38 | 42.41175 | -83.21626 | 7002 ft | 281 kts | 26° |
| 2026-05-06 21:38 | 42.42877 | -83.20359 | 6998 ft | 278 kts | 25° |
| 2026-05-06 21:39 | 42.44574 | -83.19098 | 7001 ft | 278 kts | 25° |
| 2026-05-06 21:39 | 42.46272 | -83.17827 | 7016 ft | 280 kts | 27° |
| 2026-05-06 21:39 | 42.47936 | -83.16452 | 7527 ft | 282 kts | 28° |
| 2026-05-06 21:39 | 42.49614 | -83.15019 | 8221 ft | 288 kts | 29° |
| 2026-05-06 21:40 | 42.51323 | -83.13570 | 8954 ft | 292 kts | 28° |
| 2026-05-06 21:40 | 42.53064 | -83.12101 | 9699 ft | 297 kts | 28° |
| 2026-05-06 21:40 | 42.54836 | -83.10612 | 10305 ft | 304 kts | 27° |
| 2026-05-06 21:40 | 42.56689 | -83.09017 | 10562 ft | 327 kts | 30° |
| 2026-05-06 21:41 | 42.58612 | -83.07196 | 10760 ft | 351 kts | 32° |
| 2026-05-06 21:41 | 42.60645 | -83.05208 | 10930 ft | 375 kts | 32° |
| 2026-05-06 21:41 | 42.62789 | -83.03100 | 11355 ft | 389 kts | 32° |
| 2026-05-06 21:41 | 42.65014 | -83.00916 | 11930 ft | 400 kts | 32° |
| 2026-05-06 21:42 | 42.67299 | -82.98681 | 12613 ft | 408 kts | 31° |
| 2026-05-06 21:42 | 42.69625 | -82.96413 | 13366 ft | 414 kts | 31° |
| 2026-05-06 21:42 | 42.71984 | -82.94116 | 14063 ft | 420 kts | 31° |
| 2026-05-06 21:42 | 42.74383 | -82.91781 | 14700 ft | 427 kts | 31° |
| 2026-05-06 21:43 | 42.76818 | -82.89411 | 15312 ft | 434 kts | 31° |
| 2026-05-06 21:43 | 42.79289 | -82.86998 | 15939 ft | 441 kts | 32° |
| 2026-05-06 21:43 | 42.81684 | -82.84338 | 16615 ft | 450 kts | 37° |
| 2026-05-06 21:43 | 42.83996 | -82.81399 | 17290 ft | 457 kts | 39° |
| 2026-05-06 21:44 | 42.86313 | -82.78389 | 17966 ft | 463 kts | 38° |
| 2026-05-06 21:44 | 42.88690 | -82.75397 | 18490 ft | 469 kts | 38° |
| 2026-05-06 21:44 | 42.91110 | -82.72388 | 19093 ft | 471 kts | 40° |
| 2026-05-06 21:44 | 42.93203 | -82.68889 | 19548 ft | 484 kts | 59° |
| 2026-05-06 21:45 | 42.94572 | -82.64684 | 20065 ft | 487 kts | 69° |
| 2026-05-06 21:45 | 42.95785 | -82.60412 | 20588 ft | 492 kts | 68° |
| 2026-05-06 21:45 | 42.97058 | -82.56059 | 21196 ft | 495 kts | 67° |
| 2026-05-06 21:45 | 42.98385 | -82.51704 | 21808 ft | 499 kts | 66° |
| 2026-05-06 21:46 | 42.99758 | -82.47323 | 22325 ft | 504 kts | 66° |
| 2026-05-06 21:46 | 43.01155 | -82.42903 | 22824 ft | 510 kts | 66° |
| 2026-05-06 21:46 | 43.02559 | -82.38434 | 23366 ft | 513 kts | 67° |
| 2026-05-06 21:46 | 43.03819 | -82.33878 | 23922 ft | 515 kts | 72° |
| 2026-05-06 21:47 | 43.04900 | -82.29182 | 24346 ft | 519 kts | 74° |
| 2026-05-06 21:47 | 43.05895 | -82.24415 | 24718 ft | 525 kts | 75° |
| 2026-05-06 21:47 | 43.06872 | -82.19590 | 25095 ft | 530 kts | 75° |
| 2026-05-06 21:47 | 43.07869 | -82.14719 | 25494 ft | 534 kts | 74° |
| 2026-05-06 21:48 | 43.08897 | -82.09817 | 25884 ft | 538 kts | 74° |
| 2026-05-06 21:48 | 43.09956 | -82.04874 | 26289 ft | 542 kts | 73° |
| 2026-05-06 21:48 | 43.11034 | -81.99915 | 26665 ft | 547 kts | 73° |
| 2026-05-06 21:48 | 43.12127 | -81.94922 | 27034 ft | 551 kts | 73° |
| 2026-05-06 21:49 | 43.13233 | -81.89877 | 27399 ft | 555 kts | 73° |
| 2026-05-06 21:49 | 43.14345 | -81.84790 | 27817 ft | 558 kts | 73° |
| 2026-05-06 21:49 | 43.15450 | -81.79715 | 28420 ft | 555 kts | 73° |
| 2026-05-06 21:49 | 43.16550 | -81.74637 | 28827 ft | 558 kts | 73° |
| 2026-05-06 21:50 | 43.17655 | -81.69514 | 29058 ft | 564 kts | 73° |
| 2026-05-06 21:50 | 43.18769 | -81.64336 | 29295 ft | 567 kts | 73° |
| 2026-05-06 21:50 | 43.19506 | -81.60900 | 29505 ft | 569 kts | 73° |
| 2026-05-06 21:50 | 43.20621 | -81.55693 | 29937 ft | 569 kts | 73° |
| 2026-05-06 21:51 | 43.21733 | -81.50489 | 30367 ft | 568 kts | 73° |
| 2026-05-06 21:51 | 43.22839 | -81.45297 | 30692 ft | 569 kts | 73° |
| 2026-05-06 21:51 | 43.23949 | -81.40078 | 30954 ft | 571 kts | 73° |
| 2026-05-06 21:51 | 43.25060 | -81.34842 | 31216 ft | 573 kts | 73° |
| 2026-05-06 21:52 | 43.26173 | -81.29581 | 31500 ft | 574 kts | 73° |
| 2026-05-06 21:52 | 43.27287 | -81.24304 | 31676 ft | 578 kts | 73° |
| 2026-05-06 21:52 | 43.28406 | -81.18990 | 31881 ft | 581 kts | 73° |
| 2026-05-06 21:52 | 43.29524 | -81.13668 | 32310 ft | 578 kts | 73° |
| 2026-05-06 21:53 | 43.30627 | -81.08400 | 32934 ft | 572 kts | 73° |
| 2026-05-06 21:53 | 43.31726 | -81.03139 | 32983 ft | 577 kts | 73° |
| 2026-05-06 21:53 | 43.33939 | -80.92503 | 32968 ft | 578 kts | 73° |
| 2026-05-06 21:54 | 43.36105 | -80.82043 | 32953 ft | 574 kts | 73° |
| 2026-05-06 21:54 | 43.38264 | -80.71561 | 32961 ft | 573 kts | 74° |
| 2026-05-06 21:55 | 43.40428 | -80.60998 | 32942 ft | 574 kts | 74° |
| 2026-05-06 21:55 | 43.42584 | -80.50422 | 32905 ft | 575 kts | 74° |
| 2026-05-06 21:56 | 43.44732 | -80.39831 | 32928 ft | 575 kts | 74° |
| 2026-05-06 21:56 | 43.46870 | -80.29230 | 32924 ft | 574 kts | 74° |
| 2026-05-06 21:57 | 43.48994 | -80.18646 | 32928 ft | 573 kts | 74° |
| 2026-05-06 21:57 | 43.51103 | -80.08076 | 32934 ft | 571 kts | 75° |
| 2026-05-06 21:58 | 43.53195 | -79.97539 | 32935 ft | 570 kts | 75° |
| 2026-05-06 21:58 | 43.55276 | -79.86999 | 32948 ft | 570 kts | 75° |
| 2026-05-06 21:59 | 43.57346 | -79.76460 | 32953 ft | 569 kts | 75° |
| 2026-05-06 21:59 | 43.59399 | -79.65952 | 32921 ft | 566 kts | 75° |
| 2026-05-06 22:00 | 43.61435 | -79.55475 | 32908 ft | 564 kts | 75° |
| 2026-05-06 22:00 | 43.63453 | -79.45034 | 32910 ft | 562 kts | 75° |
| 2026-05-06 22:01 | 43.65440 | -79.34614 | 32907 ft | 561 kts | 77° |
| 2026-05-06 22:01 | 43.66370 | -79.23937 | 32932 ft | 560 kts | 89° |
| 2026-05-06 22:02 | 43.66750 | -79.13170 | 32929 ft | 563 kts | 89° |
| 2026-05-06 22:02 | 43.67270 | -79.02341 | 32907 ft | 566 kts | 87° |
| 2026-05-06 22:03 | 43.67902 | -78.91489 | 32929 ft | 568 kts | 86° |
| 2026-05-06 22:03 | 43.68519 | -78.80670 | 32930 ft | 568 kts | 87° |
| 2026-05-06 22:04 | 43.69260 | -78.69821 | 32922 ft | 567 kts | 82° |
| 2026-05-06 22:04 | 43.70913 | -78.59218 | 32937 ft | 563 kts | 77° |
| 2026-05-06 22:05 | 43.72677 | -78.48709 | 32926 ft | 560 kts | 77° |
| 2026-05-06 22:05 | 43.74380 | -78.38213 | 32927 ft | 559 kts | 78° |
| 2026-05-06 22:06 | 43.76036 | -78.27708 | 32930 ft | 559 kts | 78° |
| 2026-05-06 22:06 | 43.77679 | -78.17188 | 32921 ft | 560 kts | 78° |
| 2026-05-06 22:07 | 43.79319 | -78.06643 | 32925 ft | 561 kts | 78° |
| 2026-05-06 22:07 | 43.80955 | -77.96084 | 32925 ft | 561 kts | 78° |
| 2026-05-06 22:08 | 43.82576 | -77.85545 | 32906 ft | 558 kts | 79° |
| 2026-05-06 22:08 | 43.84180 | -77.75048 | 32913 ft | 556 kts | 79° |
| 2026-05-06 22:09 | 43.85769 | -77.64585 | 32915 ft | 555 kts | 79° |
| 2026-05-06 22:09 | 43.87346 | -77.54127 | 32903 ft | 554 kts | 79° |
| 2026-05-06 22:10 | 43.88911 | -77.43680 | 32917 ft | 554 kts | 79° |
| 2026-05-06 22:10 | 43.90471 | -77.33210 | 32922 ft | 555 kts | 79° |
| 2026-05-06 22:11 | 43.91987 | -77.22711 | 32887 ft | 555 kts | 80° |
| 2026-05-06 22:11 | 43.93450 | -77.12281 | 32923 ft | 554 kts | 80° |